createdAt,value
2018-12-22T00:00:02.168Z,20
2018-12-22T00:02:01.150Z,18
2018-12-22T00:03:01.090Z,19
2018-12-22T00:04:01.090Z,18
2018-12-22T00:07:01.119Z,19
2018-12-22T00:08:01.088Z,18
2018-12-22T00:09:01.552Z,19
2018-12-22T00:10:01.088Z,18
2018-12-22T00:11:01.123Z,19
2018-12-22T00:12:01.090Z,20
2018-12-22T00:13:02.339Z,19
2018-12-22T00:15:01.088Z,19
2018-12-22T00:17:01.125Z,17
2018-12-22T00:18:01.087Z,18
2018-12-22T00:19:01.089Z,19
2018-12-22T00:20:01.087Z,18
2018-12-22T00:21:01.087Z,17
2018-12-22T00:22:01.133Z,18
2018-12-22T00:25:01.091Z,21
2018-12-22T00:27:01.142Z,18
2018-12-22T00:30:01.089Z,16
2018-12-22T00:31:01.089Z,17
2018-12-22T00:32:01.136Z,21
2018-12-22T00:36:01.088Z,19
2018-12-22T00:37:01.120Z,15
2018-12-22T00:39:01.092Z,14
2018-12-22T00:40:01.092Z,13
2018-12-22T00:41:01.096Z,12
2018-12-22T00:42:01.123Z,15
2018-12-22T00:45:01.172Z,17
2018-12-22T00:46:01.088Z,19
2018-12-22T00:47:02.407Z,17
2018-12-22T00:49:01.090Z,16
2018-12-22T00:50:01.089Z,17
2018-12-22T00:52:01.094Z,18
2018-12-22T00:54:01.124Z,19
2018-12-22T00:56:01.090Z,17
2018-12-22T00:57:01.097Z,18
2018-12-22T00:58:01.094Z,17
2018-12-22T00:59:01.128Z,18
2018-12-22T01:00:01.108Z,17
2018-12-22T01:01:01.091Z,19
2018-12-22T01:02:01.090Z,18
2018-12-22T01:03:01.090Z,19
2018-12-22T01:04:02.099Z,18
2018-12-22T01:05:01.091Z,16
2018-12-22T01:06:01.104Z,15
2018-12-22T01:08:01.093Z,14
2018-12-22T01:09:01.091Z,16
2018-12-22T01:11:01.157Z,18
2018-12-22T01:13:01.094Z,20
2018-12-22T01:14:01.099Z,18
2018-12-22T01:15:01.130Z,22
2018-12-22T01:16:01.093Z,21
2018-12-22T01:17:01.096Z,20
2018-12-22T01:20:01.135Z,19
2018-12-22T01:21:02.424Z,17
2018-12-22T01:22:01.096Z,19
2018-12-22T01:25:01.134Z,18
2018-12-22T01:27:01.095Z,15
2018-12-22T01:30:01.135Z,15
2018-12-22T01:31:01.099Z,16
2018-12-22T01:32:01.096Z,17
2018-12-22T01:35:01.129Z,18
2018-12-22T01:36:01.098Z,17
2018-12-22T01:37:01.099Z,18
2018-12-22T01:38:01.097Z,17
2018-12-22T01:39:01.100Z,19
2018-12-22T01:40:01.138Z,16
2018-12-22T01:42:01.146Z,17
2018-12-22T01:45:01.090Z,15
2018-12-22T01:46:01.081Z,16
2018-12-22T01:49:01.081Z,17
2018-12-22T01:50:01.082Z,19
2018-12-22T01:51:02.138Z,20
2018-12-22T01:52:01.082Z,21
2018-12-22T01:53:01.082Z,19
2018-12-22T01:55:01.086Z,17
2018-12-22T01:57:01.087Z,16
2018-12-22T02:00:01.139Z,18
2018-12-22T02:01:01.088Z,17
2018-12-22T02:02:01.205Z,16
2018-12-22T02:03:01.083Z,17
2018-12-22T02:04:01.088Z,19
2018-12-22T02:05:01.087Z,18
2018-12-22T02:06:01.114Z,19
2018-12-22T02:07:01.088Z,21
2018-12-22T02:09:01.097Z,19
2018-12-22T02:12:01.149Z,18
2018-12-22T02:14:01.086Z,16
2018-12-22T02:15:01.087Z,16
2018-12-22T02:17:01.116Z,17
2018-12-22T02:20:01.085Z,19
2018-12-22T02:22:01.143Z,16
2018-12-22T02:25:01.930Z,14
2018-12-22T02:26:01.113Z,17
2018-12-22T02:27:01.087Z,19
2018-12-22T02:28:01.088Z,18
2018-12-22T02:29:01.090Z,21
2018-12-22T02:30:01.095Z,20
2018-12-22T02:31:01.112Z,19
2018-12-22T02:32:01.085Z,17
2018-12-22T02:33:01.087Z,18
2018-12-22T02:34:01.088Z,19
2018-12-22T02:35:01.091Z,21
2018-12-22T02:37:01.121Z,20
2018-12-22T02:38:02.089Z,19
2018-12-22T02:39:01.086Z,20
2018-12-22T02:40:01.089Z,18
2018-12-22T02:42:01.179Z,21
2018-12-22T02:43:01.087Z,22
2018-12-22T02:44:01.091Z,21
2018-12-22T02:45:01.089Z,21
2018-12-22T02:46:01.275Z,20
2018-12-22T02:47:01.093Z,19
2018-12-22T02:48:01.089Z,17
2018-12-22T02:49:01.190Z,15
2018-12-22T02:50:01.088Z,14
2018-12-22T02:52:01.180Z,13
2018-12-22T02:53:01.086Z,15
2018-12-22T02:54:01.089Z,16
2018-12-22T02:57:01.134Z,17
2018-12-22T02:59:05.749Z,18
2018-12-22T03:00:01.093Z,18
2018-12-22T03:01:01.125Z,19
2018-12-22T03:03:01.097Z,20
2018-12-22T03:04:01.095Z,17
2018-12-22T03:06:01.127Z,18
2018-12-22T03:09:01.101Z,19
2018-12-22T03:10:01.094Z,21
2018-12-22T03:11:01.120Z,20
2018-12-22T03:13:01.095Z,19
2018-12-22T03:15:01.097Z,16
2018-12-22T03:20:01.121Z,17
2018-12-22T03:21:01.098Z,16
2018-12-22T03:22:01.125Z,17
2018-12-22T03:26:01.102Z,18
2018-12-22T03:28:01.125Z,19
2018-12-22T03:29:01.100Z,20
2018-12-22T03:30:01.109Z,20
2018-12-22T03:32:01.253Z,18
2018-12-22T03:37:01.099Z,19
2018-12-22T03:40:01.111Z,18
2018-12-22T03:41:01.103Z,17
2018-12-22T03:42:01.082Z,19
2018-12-22T03:43:01.085Z,18
2018-12-22T03:45:01.120Z,18
2018-12-22T03:46:01.083Z,19
2018-12-22T03:47:01.084Z,18
2018-12-22T03:48:01.081Z,17
2018-12-22T03:50:01.115Z,18
2018-12-22T03:51:01.082Z,19
2018-12-22T03:52:01.083Z,18
2018-12-22T03:53:01.228Z,19
2018-12-22T03:58:01.083Z,20
2018-12-22T03:59:01.091Z,19
2018-12-22T04:00:01.083Z,19
2018-12-22T04:01:01.084Z,17
2018-12-22T04:02:01.087Z,16
2018-12-22T04:04:01.912Z,15
2018-12-22T04:05:01.082Z,16
2018-12-22T04:06:01.084Z,15
2018-12-22T04:07:01.094Z,18
2018-12-22T04:08:01.084Z,17
2018-12-22T04:10:01.084Z,18
2018-12-22T04:11:01.087Z,19
2018-12-22T04:12:01.196Z,17
2018-12-22T04:13:01.083Z,18
2018-12-22T04:14:01.087Z,17
2018-12-22T04:15:01.141Z,15
2018-12-22T04:16:01.088Z,16
2018-12-22T04:18:01.107Z,18
2018-12-22T04:19:01.086Z,17
2018-12-22T04:20:01.086Z,18
2018-12-22T04:21:01.086Z,17
2018-12-22T04:22:01.087Z,16
2018-12-22T04:23:01.092Z,15
2018-12-22T04:24:01.087Z,17
2018-12-22T04:26:01.086Z,16
2018-12-22T04:27:01.086Z,17
2018-12-22T04:28:01.086Z,18
2018-12-22T04:29:01.092Z,16
2018-12-22T04:30:01.100Z,16
2018-12-22T04:31:01.118Z,17
2018-12-22T04:33:01.089Z,16
2018-12-22T04:34:01.093Z,15
2018-12-22T04:35:01.089Z,16
2018-12-22T04:36:01.128Z,15
2018-12-22T04:38:01.091Z,14
2018-12-22T04:39:01.091Z,16
2018-12-22T04:40:01.095Z,15
2018-12-22T04:41:01.124Z,16
2018-12-22T04:42:01.089Z,18
2018-12-22T04:43:01.089Z,19
2018-12-22T04:45:01.097Z,20
2018-12-22T04:46:01.128Z,19
2018-12-22T04:47:01.233Z,18
2018-12-22T04:48:01.091Z,20
2018-12-22T04:50:01.091Z,19
2018-12-22T04:53:01.185Z,18
2018-12-22T04:54:01.100Z,17
2018-12-22T04:55:01.091Z,18
2018-12-22T04:58:01.124Z,17
2018-12-22T04:59:01.092Z,18
2018-12-22T05:00:01.099Z,15
2018-12-22T05:01:01.090Z,16
2018-12-22T05:02:01.094Z,15
2018-12-22T05:03:01.119Z,14
2018-12-22T05:05:01.098Z,15
2018-12-22T05:06:01.121Z,14
2018-12-22T05:07:01.094Z,15
2018-12-22T05:08:01.200Z,16
2018-12-22T05:09:01.096Z,17
2018-12-22T05:11:01.126Z,20
2018-12-22T05:12:01.097Z,19
2018-12-22T05:13:01.094Z,18
2018-12-22T05:15:01.093Z,17
2018-12-22T05:18:01.126Z,18
2018-12-22T05:19:01.093Z,19
2018-12-22T05:20:01.752Z,20
2018-12-22T05:22:01.191Z,19
2018-12-22T05:23:01.094Z,18
2018-12-22T05:24:01.108Z,17
2018-12-22T05:25:01.094Z,16
2018-12-22T05:26:01.093Z,17
2018-12-22T05:27:01.131Z,15
2018-12-22T05:28:01.097Z,18
2018-12-22T05:29:01.099Z,17
2018-12-22T05:30:01.096Z,16
2018-12-22T05:31:01.092Z,15
2018-12-22T05:32:01.131Z,16
2018-12-22T05:33:01.093Z,15
2018-12-22T05:34:01.095Z,17
2018-12-22T05:36:02.101Z,18
2018-12-22T05:38:01.103Z,17
2018-12-22T05:40:01.080Z,15
2018-12-22T05:41:01.077Z,14
2018-12-22T05:42:01.080Z,15
2018-12-22T05:45:01.108Z,14
2018-12-22T05:46:01.077Z,15
2018-12-22T05:48:01.080Z,14
2018-12-22T05:49:02.038Z,16
2018-12-22T05:51:01.078Z,15
2018-12-22T05:52:01.077Z,13
2018-12-22T05:54:01.079Z,12
2018-12-22T05:55:01.105Z,14
2018-12-22T05:57:01.089Z,15
2018-12-22T05:58:01.076Z,16
2018-12-22T05:59:01.077Z,15
2018-12-22T06:00:01.110Z,15
2018-12-22T06:03:01.142Z,14
2018-12-22T06:08:01.079Z,15
2018-12-22T06:09:01.081Z,17
2018-12-22T06:10:01.079Z,19
2018-12-22T06:11:01.155Z,18
2018-12-22T06:13:01.088Z,19
2018-12-22T06:14:01.078Z,16
2018-12-22T06:15:01.079Z,14
2018-12-22T06:16:01.080Z,15
2018-12-22T06:17:01.078Z,14
2018-12-22T06:18:01.083Z,15
2018-12-22T06:19:01.081Z,17
2018-12-22T06:21:01.082Z,18
2018-12-22T06:24:01.080Z,17
2018-12-22T06:26:01.084Z,16
2018-12-22T06:28:01.086Z,17
2018-12-22T06:30:08.880Z,17
2018-12-22T06:31:01.080Z,16
2018-12-22T06:32:01.081Z,17
2018-12-22T06:33:01.083Z,15
2018-12-22T06:34:01.081Z,16
2018-12-22T06:35:01.083Z,15
2018-12-22T06:36:01.117Z,16
2018-12-22T06:37:01.089Z,15
2018-12-22T06:38:01.087Z,17
2018-12-22T06:39:01.087Z,15
2018-12-22T06:40:02.195Z,18
2018-12-22T06:41:01.087Z,16
2018-12-22T06:42:06.086Z,17
2018-12-22T06:43:01.083Z,18
2018-12-22T06:44:01.083Z,19
2018-12-22T06:45:01.087Z,18
2018-12-22T06:46:01.084Z,19
2018-12-22T06:47:01.243Z,17
2018-12-22T06:48:01.267Z,16
2018-12-22T06:50:01.087Z,17
2018-12-22T06:51:01.085Z,20
2018-12-22T06:52:01.087Z,21
2018-12-22T06:55:01.088Z,20
2018-12-22T06:56:01.091Z,19
2018-12-22T06:57:01.084Z,17
2018-12-22T06:58:01.111Z,18
2018-12-22T06:59:01.083Z,17
2018-12-22T07:00:01.091Z,18
2018-12-22T07:01:01.087Z,17
2018-12-22T07:04:01.091Z,16
2018-12-22T07:05:02.255Z,15
2018-12-22T07:06:02.080Z,17
2018-12-22T07:07:01.094Z,18
2018-12-22T07:09:01.086Z,21
2018-12-22T07:11:01.089Z,20
2018-12-22T07:12:01.094Z,19
2018-12-22T07:13:01.093Z,18
2018-12-22T07:14:01.088Z,16
2018-12-22T07:15:01.132Z,15
2018-12-22T07:18:01.087Z,18
2018-12-22T07:19:01.088Z,17
2018-12-22T07:20:01.113Z,19
2018-12-22T07:21:01.094Z,17
2018-12-22T07:22:01.087Z,18
2018-12-22T07:23:02.030Z,17
2018-12-22T07:25:01.116Z,16
2018-12-22T07:28:01.089Z,15
2018-12-22T07:29:01.092Z,14
2018-12-22T07:30:01.116Z,15
2018-12-22T07:31:01.093Z,16
2018-12-22T07:33:01.090Z,17
2018-12-22T07:34:01.091Z,18
2018-12-22T07:37:01.088Z,19
2018-12-22T07:40:01.114Z,20
2018-12-22T07:41:01.089Z,22
2018-12-22T07:42:01.091Z,21
2018-12-22T07:43:01.091Z,20
2018-12-22T07:44:01.090Z,21
2018-12-22T07:45:01.385Z,21
2018-12-22T07:46:01.092Z,19
2018-12-22T07:48:01.093Z,22
2018-12-22T07:49:01.097Z,21
2018-12-22T07:50:02.145Z,19
2018-12-22T07:51:01.089Z,16
2018-12-22T07:53:01.091Z,15
2018-12-22T07:54:01.094Z,13
2018-12-22T07:55:01.118Z,15
2018-12-22T07:56:01.093Z,17
2018-12-22T07:57:01.089Z,16
2018-12-22T07:58:02.158Z,14
2018-12-22T07:59:01.095Z,16
2018-12-22T08:00:01.171Z,17
2018-12-22T08:03:01.168Z,19
2018-12-22T08:04:01.100Z,17
2018-12-22T08:05:01.118Z,16
2018-12-22T08:07:01.093Z,17
2018-12-22T08:08:01.093Z,16
2018-12-22T08:10:01.123Z,17
2018-12-22T08:11:01.096Z,16
2018-12-22T08:13:01.078Z,15
2018-12-22T08:14:01.078Z,17
2018-12-22T08:15:02.249Z,18
2018-12-22T08:16:01.088Z,17
2018-12-22T08:17:01.087Z,18
2018-12-22T08:18:01.078Z,19
2018-12-22T08:19:01.088Z,17
2018-12-22T08:20:01.081Z,18
2018-12-22T08:21:01.111Z,19
2018-12-22T08:22:01.079Z,18
2018-12-22T08:26:01.081Z,16
2018-12-22T08:27:01.216Z,15
2018-12-22T08:30:01.086Z,15
2018-12-22T08:32:01.081Z,18
2018-12-22T08:33:01.082Z,17
2018-12-22T08:34:01.079Z,19
2018-12-22T08:36:01.079Z,20
2018-12-22T08:37:01.084Z,18
2018-12-22T08:39:01.086Z,17
2018-12-22T08:40:01.210Z,16
2018-12-22T08:41:01.081Z,17
2018-12-22T08:42:01.082Z,15
2018-12-22T08:43:01.085Z,16
2018-12-22T08:45:01.098Z,16
2018-12-22T08:48:01.094Z,15
2018-12-22T08:50:08.704Z,16
2018-12-22T08:55:01.213Z,13
2018-12-22T08:56:01.147Z,15
2018-12-22T08:57:01.085Z,16
2018-12-22T08:59:01.093Z,17
2018-12-22T09:00:01.095Z,19
2018-12-22T09:01:02.165Z,20
2018-12-22T09:04:01.086Z,19
2018-12-22T09:06:01.089Z,16
2018-12-22T09:07:01.112Z,15
2018-12-22T09:08:01.088Z,14
2018-12-22T09:09:01.093Z,13
2018-12-22T09:10:01.091Z,12
2018-12-22T09:11:01.087Z,14
2018-12-22T09:12:01.131Z,16
2018-12-22T09:13:01.167Z,17
2018-12-22T09:14:01.092Z,18
2018-12-22T09:15:01.090Z,18
2018-12-22T09:17:01.123Z,20
2018-12-22T09:18:01.465Z,19
2018-12-22T09:19:01.090Z,18
2018-12-22T09:20:01.090Z,19
2018-12-22T09:21:01.092Z,18
2018-12-22T09:22:01.128Z,15
2018-12-22T09:23:01.091Z,14
2018-12-22T09:24:01.101Z,15
2018-12-22T09:25:01.092Z,14
2018-12-22T09:28:01.097Z,16
2018-12-22T09:29:01.097Z,15
2018-12-22T09:30:01.094Z,15
2018-12-22T09:31:01.460Z,14
2018-12-22T09:32:01.127Z,16
2018-12-22T09:33:01.092Z,17
2018-12-22T09:34:01.092Z,18
2018-12-22T09:36:01.093Z,16
2018-12-22T09:37:01.176Z,15
2018-12-22T09:44:01.204Z,14
2018-12-22T09:45:01.089Z,16
2018-12-22T09:46:01.076Z,18
2018-12-22T09:47:01.078Z,19
2018-12-22T09:49:01.078Z,20
2018-12-22T09:50:01.104Z,19
2018-12-22T09:52:01.141Z,18
2018-12-22T09:53:01.076Z,19
2018-12-22T09:55:01.103Z,18
2018-12-22T09:58:01.078Z,19
2018-12-22T09:59:01.082Z,20
2018-12-22T10:00:01.119Z,20
2018-12-22T10:01:09.091Z,19
2018-12-22T10:02:01.076Z,20
2018-12-22T10:03:01.077Z,19
2018-12-22T10:04:01.079Z,18
2018-12-22T10:06:01.079Z,20
2018-12-22T10:09:01.081Z,19
2018-12-22T10:10:01.080Z,18
2018-12-22T10:11:01.084Z,16
2018-12-22T10:12:01.077Z,17
2018-12-22T10:13:01.828Z,15
2018-12-22T10:15:01.077Z,15
2018-12-22T10:16:01.081Z,14
2018-12-22T10:18:01.078Z,16
2018-12-22T10:20:01.078Z,15
2018-12-22T10:21:01.081Z,17
2018-12-22T10:22:01.382Z,15
2018-12-22T10:23:01.084Z,16
2018-12-22T10:24:01.078Z,17
2018-12-22T10:25:01.078Z,18
2018-12-22T10:28:01.077Z,19
2018-12-22T10:29:01.077Z,16
2018-12-22T10:30:01.084Z,16
2018-12-22T10:31:01.077Z,15
2018-12-22T10:33:01.076Z,13
2018-12-22T10:34:01.076Z,14
2018-12-22T10:35:01.078Z,16
2018-12-22T10:38:01.077Z,17
2018-12-22T10:41:01.144Z,18
2018-12-22T10:43:01.083Z,20
2018-12-22T10:44:01.086Z,19
2018-12-22T10:45:01.085Z,19
2018-12-22T10:46:01.083Z,17
2018-12-22T10:48:01.230Z,15
2018-12-22T10:49:01.081Z,16
2018-12-22T10:50:01.080Z,15
2018-12-22T10:52:01.211Z,13
2018-12-22T10:54:01.082Z,12
2018-12-22T10:55:01.096Z,13
2018-12-22T10:56:01.105Z,16
2018-12-22T10:57:01.080Z,15
2018-12-22T10:58:01.080Z,17
2018-12-22T10:59:01.081Z,18
2018-12-22T11:00:01.081Z,18
2018-12-22T11:01:01.115Z,16
2018-12-22T11:02:01.081Z,18
2018-12-22T11:03:01.081Z,17
2018-12-22T11:04:02.201Z,15
2018-12-22T11:08:01.084Z,16
2018-12-22T11:09:01.079Z,18
2018-12-22T11:14:01.150Z,19
2018-12-22T11:15:01.082Z,19
2018-12-22T11:18:01.080Z,18
2018-12-22T11:19:01.083Z,17
2018-12-22T11:20:01.087Z,16
2018-12-22T11:22:01.211Z,15
2018-12-22T11:23:01.082Z,14
2018-12-22T11:24:02.901Z,13
2018-12-22T11:25:01.088Z,14
2018-12-22T11:28:01.087Z,15
2018-12-22T11:29:01.258Z,16
2018-12-22T11:30:01.083Z,16
2018-12-22T11:31:01.083Z,18
2018-12-22T11:33:03.267Z,19
2018-12-22T11:34:01.098Z,18
2018-12-22T11:35:01.087Z,19
2018-12-22T11:36:01.083Z,18
2018-12-22T11:38:02.019Z,19
2018-12-22T11:39:01.083Z,18
2018-12-22T11:41:01.213Z,15
2018-12-22T11:42:01.087Z,17
2018-12-22T11:43:01.085Z,16
2018-12-22T11:44:01.089Z,18
2018-12-22T11:45:01.098Z,17
2018-12-22T11:46:01.084Z,19
2018-12-22T11:47:01.085Z,18
2018-12-22T11:48:01.085Z,19
2018-12-22T11:49:01.089Z,16
2018-12-22T11:50:01.097Z,17
2018-12-22T11:52:01.185Z,16
2018-12-22T11:53:01.088Z,15
2018-12-22T11:54:01.087Z,17
2018-12-22T11:55:01.109Z,15
2018-12-22T11:57:01.124Z,14
2018-12-22T11:58:01.092Z,16
2018-12-22T12:00:01.103Z,17
2018-12-22T12:02:09.238Z,19
2018-12-22T12:03:01.093Z,20
2018-12-22T12:04:02.121Z,19
2018-12-22T12:06:01.096Z,20
2018-12-22T12:07:01.121Z,21
2018-12-22T12:08:01.090Z,20
2018-12-22T12:09:01.093Z,19
2018-12-22T12:10:01.094Z,20
2018-12-22T12:11:01.089Z,18
2018-12-22T12:12:01.130Z,16
2018-12-22T12:13:01.094Z,15
2018-12-22T12:15:01.096Z,14
2018-12-22T12:17:01.124Z,15
2018-12-22T12:18:01.176Z,14
2018-12-22T12:19:01.091Z,16
2018-12-22T12:21:01.157Z,17
2018-12-22T12:23:01.096Z,18
2018-12-22T12:24:01.100Z,17
2018-12-22T12:25:01.096Z,18
2018-12-22T12:28:01.124Z,17
2018-12-22T12:29:01.196Z,16
2018-12-22T12:30:01.094Z,16
2018-12-22T12:31:01.091Z,13
2018-12-22T12:32:01.095Z,14
2018-12-22T12:34:01.120Z,16
2018-12-22T12:36:01.104Z,18
2018-12-22T12:42:01.210Z,20
2018-12-22T12:43:01.080Z,21
2018-12-22T12:44:06.092Z,23
2018-12-22T12:45:01.101Z,23
2018-12-22T12:47:01.079Z,20
2018-12-22T12:48:01.082Z,17
2018-12-22T12:49:01.088Z,15
2018-12-22T12:50:01.105Z,14
2018-12-22T12:51:01.081Z,13
2018-12-22T12:52:01.079Z,14
2018-12-22T12:57:01.143Z,13
2018-12-22T12:58:01.084Z,14
2018-12-22T12:59:01.078Z,16
2018-12-22T13:00:01.093Z,16
2018-12-22T13:04:01.145Z,15
2018-12-22T13:05:01.109Z,16
2018-12-22T13:10:01.110Z,15
2018-12-22T13:12:01.145Z,16
2018-12-22T13:15:01.083Z,17
2018-12-22T13:16:01.084Z,15
2018-12-22T13:17:01.083Z,13
2018-12-22T13:18:01.087Z,14
2018-12-22T13:19:01.082Z,13
2018-12-22T13:20:01.080Z,12
2018-12-22T13:21:01.119Z,13
2018-12-22T13:22:01.087Z,14
2018-12-22T13:23:01.078Z,13
2018-12-22T13:24:01.082Z,14
2018-12-22T13:25:01.081Z,13
2018-12-22T13:26:01.083Z,14
2018-12-22T13:27:01.108Z,17
2018-12-22T13:28:01.083Z,16
2018-12-22T13:30:06.085Z,17
2018-12-22T13:31:01.086Z,19
2018-12-22T13:32:09.289Z,17
2018-12-22T13:36:01.082Z,16
2018-12-22T13:37:01.083Z,17
2018-12-22T13:38:01.087Z,19
2018-12-22T13:39:01.117Z,17
2018-12-22T13:40:01.084Z,16
2018-12-22T13:41:01.085Z,15
2018-12-22T13:42:01.089Z,16
2018-12-22T13:43:01.086Z,14
2018-12-22T13:44:01.087Z,15
2018-12-22T13:45:01.113Z,16
2018-12-22T13:47:01.676Z,14
2018-12-22T13:50:01.297Z,15
2018-12-22T13:52:01.084Z,16
2018-12-22T13:53:01.083Z,19
2018-12-22T13:54:01.085Z,20
2018-12-22T13:56:01.089Z,21
2018-12-22T13:57:01.085Z,22
2018-12-22T13:58:01.086Z,18
2018-12-22T14:00:01.122Z,17
2018-12-22T14:02:01.089Z,18
2018-12-22T14:04:01.085Z,17
2018-12-22T14:05:01.121Z,18
2018-12-22T14:06:01.087Z,17
2018-12-22T14:07:01.088Z,15
2018-12-22T14:08:01.087Z,17
2018-12-22T14:09:01.088Z,18
2018-12-22T14:10:01.090Z,17
2018-12-22T14:11:01.088Z,16
2018-12-22T14:12:01.087Z,17
2018-12-22T14:13:01.085Z,15
2018-12-22T14:15:01.087Z,16
2018-12-22T14:16:01.090Z,18
2018-12-22T14:17:01.088Z,19
2018-12-22T14:18:01.083Z,20
2018-12-22T14:21:01.216Z,19
2018-12-22T14:23:01.086Z,20
2018-12-22T14:25:06.090Z,19
2018-12-22T14:28:01.087Z,17
2018-12-22T14:29:01.087Z,16
2018-12-22T14:30:06.096Z,17
2018-12-22T14:32:01.151Z,18
2018-12-22T14:33:01.095Z,19
2018-12-22T14:34:01.088Z,20
2018-12-22T14:35:06.090Z,19
2018-12-22T14:36:01.089Z,21
2018-12-22T14:37:01.097Z,20
2018-12-22T14:38:01.090Z,19
2018-12-22T14:39:01.090Z,18
2018-12-22T14:41:01.306Z,15
2018-12-22T14:43:01.087Z,16
2018-12-22T14:44:01.090Z,18
2018-12-22T14:45:01.124Z,18
2018-12-22T14:46:01.087Z,19
2018-12-22T14:47:01.090Z,20
2018-12-22T14:48:01.089Z,19
2018-12-22T14:49:01.089Z,15
2018-12-22T14:53:01.215Z,16
2018-12-22T14:54:01.090Z,18
2018-12-22T14:55:01.115Z,19
2018-12-22T14:57:01.088Z,18
2018-12-22T14:58:01.087Z,20
2018-12-22T15:00:01.180Z,21
2018-12-22T15:02:01.153Z,20
2018-12-22T15:03:01.087Z,17
2018-12-22T15:04:01.088Z,15
2018-12-22T15:05:01.124Z,14
2018-12-22T15:06:01.093Z,15
2018-12-22T15:07:01.095Z,16
2018-12-22T15:08:01.088Z,17
2018-12-22T15:09:01.103Z,18
2018-12-22T15:15:06.113Z,17
2018-12-22T15:17:01.092Z,18
2018-12-22T15:19:01.089Z,20
2018-12-22T15:20:06.103Z,18
2018-12-22T15:21:01.094Z,19
2018-12-22T15:22:01.091Z,18
2018-12-22T15:24:01.090Z,16
2018-12-22T15:25:01.115Z,17
2018-12-22T15:27:01.088Z,16
2018-12-22T15:28:01.125Z,18
2018-12-22T15:29:01.095Z,17
2018-12-22T15:30:01.099Z,17
2018-12-22T15:32:01.089Z,18
2018-12-22T15:33:06.092Z,17
2018-12-22T15:34:01.090Z,20
2018-12-22T15:35:01.093Z,22
2018-12-22T15:37:01.090Z,21
2018-12-22T15:38:01.090Z,22
2018-12-22T15:39:01.094Z,19
2018-12-22T15:41:06.097Z,17
2018-12-22T15:42:01.092Z,18
2018-12-22T15:43:01.091Z,16
2018-12-22T15:45:06.105Z,16
2018-12-22T15:48:01.156Z,17
2018-12-22T15:50:01.117Z,16
2018-12-22T15:51:01.091Z,17
2018-12-22T15:52:01.126Z,16
2018-12-22T15:57:01.250Z,17
2018-12-22T15:58:01.095Z,18
2018-12-22T16:00:01.101Z,18
2018-12-22T16:02:01.210Z,17
2018-12-22T16:04:01.079Z,16
2018-12-22T16:05:01.087Z,17
2018-12-22T16:08:01.078Z,16
2018-12-22T16:11:01.143Z,13
2018-12-22T16:13:01.077Z,15
2018-12-22T16:14:01.082Z,16
2018-12-22T16:15:01.082Z,17
2018-12-22T16:16:01.081Z,19
2018-12-22T16:17:01.079Z,21
2018-12-22T16:20:01.110Z,19
2018-12-22T16:22:01.143Z,16
2018-12-22T16:23:01.132Z,15
2018-12-22T16:24:01.079Z,14
2018-12-22T16:26:01.087Z,15
2018-12-22T16:27:01.083Z,17
2018-12-22T16:29:01.109Z,19
2018-12-22T16:30:01.086Z,19
2018-12-22T16:31:01.082Z,17
2018-12-22T16:35:02.020Z,16
2018-12-22T16:36:01.082Z,18
2018-12-22T16:37:01.091Z,17
2018-12-22T16:38:01.083Z,20
2018-12-22T16:39:01.117Z,21
2018-12-22T16:40:01.081Z,22
2018-12-22T16:41:01.082Z,20
2018-12-22T16:42:01.081Z,19
2018-12-22T16:43:01.097Z,17
2018-12-22T16:44:01.093Z,16
2018-12-22T16:45:01.112Z,15
2018-12-22T16:48:02.006Z,17
2018-12-22T16:49:01.082Z,16
2018-12-22T16:50:01.140Z,18
2018-12-22T16:55:01.150Z,16
2018-12-22T16:56:01.085Z,17
2018-12-22T17:00:01.087Z,18
2018-12-22T17:01:01.087Z,16
2018-12-22T17:02:01.086Z,15
2018-12-22T17:03:01.085Z,16
2018-12-22T17:04:01.085Z,17
2018-12-22T17:05:06.091Z,16
2018-12-22T17:06:01.085Z,17
2018-12-22T17:08:01.087Z,16
2018-12-22T17:12:01.240Z,17
2018-12-22T17:13:01.091Z,16
2018-12-22T17:14:01.087Z,17
2018-12-22T17:15:01.090Z,17
2018-12-22T17:16:01.091Z,18
2018-12-22T17:17:01.127Z,19
2018-12-22T17:18:01.086Z,18
2018-12-22T17:19:01.086Z,17
2018-12-22T17:20:01.088Z,15
2018-12-22T17:21:01.086Z,14
2018-12-22T17:23:01.137Z,16
2018-12-22T17:25:01.087Z,18
2018-12-22T17:26:01.086Z,19
2018-12-22T17:27:01.088Z,18
2018-12-22T17:28:01.086Z,17
2018-12-22T17:30:01.088Z,16
2018-12-22T17:31:01.088Z,14
2018-12-22T17:32:01.094Z,15
2018-12-22T17:33:01.089Z,16
2018-12-22T17:34:01.129Z,17
2018-12-22T17:36:01.099Z,18
2018-12-22T17:37:01.092Z,17
2018-12-22T17:41:01.230Z,18
2018-12-22T17:42:01.077Z,19
2018-12-22T17:45:01.107Z,19
2018-12-22T17:48:01.076Z,20
2018-12-22T17:51:01.164Z,19
2018-12-22T17:52:01.077Z,18
2018-12-22T17:53:01.077Z,17
2018-12-22T17:55:01.078Z,18
2018-12-22T17:56:01.107Z,17
2018-12-22T17:57:01.073Z,18
2018-12-22T17:58:01.078Z,19
2018-12-22T17:59:01.075Z,20
2018-12-22T18:00:01.076Z,18
2018-12-22T18:01:01.074Z,19
2018-12-22T18:02:01.074Z,18
2018-12-22T18:03:01.078Z,15
2018-12-22T18:04:01.089Z,16
2018-12-22T18:08:02.101Z,17
2018-12-22T18:09:01.076Z,15
2018-12-22T18:11:01.209Z,16
2018-12-22T18:12:01.077Z,15
2018-12-22T18:13:01.078Z,16
2018-12-22T18:14:01.077Z,15
2018-12-22T18:15:01.083Z,15
2018-12-22T18:16:01.078Z,14
2018-12-22T18:17:01.078Z,16
2018-12-22T18:18:01.082Z,14
2018-12-22T18:19:01.114Z,15
2018-12-22T18:20:01.081Z,17
2018-12-22T18:21:01.084Z,19
2018-12-22T18:24:01.081Z,17
2018-12-22T18:25:01.115Z,15
2018-12-22T18:26:01.083Z,13
2018-12-22T18:28:01.082Z,12
2018-12-22T18:29:01.082Z,13
2018-12-22T18:30:01.083Z,15
2018-12-22T18:33:01.093Z,17
2018-12-22T18:34:01.083Z,16
2018-12-22T18:35:01.086Z,15
2018-12-22T18:36:01.114Z,14
2018-12-22T18:37:01.088Z,16
2018-12-22T18:38:01.092Z,15
2018-12-22T18:39:01.084Z,17
2018-12-22T18:40:01.086Z,18
2018-12-22T18:41:01.123Z,17
2018-12-22T18:44:01.085Z,18
2018-12-22T18:45:01.087Z,16
2018-12-22T18:46:01.085Z,18
2018-12-22T18:50:01.088Z,19
2018-12-22T18:51:01.087Z,18
2018-12-22T18:52:01.090Z,17
2018-12-22T18:53:01.086Z,18
2018-12-22T18:54:01.090Z,16
2018-12-22T18:55:01.088Z,17
2018-12-22T18:56:01.089Z,18
2018-12-22T18:58:01.090Z,17
2018-12-22T18:59:01.979Z,16
2018-12-22T19:00:01.092Z,18
2018-12-22T19:01:06.105Z,17
2018-12-22T19:02:01.090Z,19
2018-12-22T19:04:01.084Z,22
2018-12-22T19:05:01.089Z,20
2018-12-22T19:06:01.091Z,21
2018-12-22T19:07:01.085Z,19
2018-12-22T19:08:01.085Z,20
2018-12-22T19:09:01.085Z,19
2018-12-22T19:10:01.091Z,18
2018-12-22T19:11:01.116Z,19
2018-12-22T19:13:01.084Z,18
2018-12-22T19:14:01.086Z,17
2018-12-22T19:15:01.092Z,15
2018-12-22T19:17:01.084Z,17
2018-12-22T19:18:01.085Z,16
2018-12-22T19:20:01.091Z,19
2018-12-22T19:21:01.087Z,18
2018-12-22T19:23:01.086Z,19
2018-12-22T19:24:01.257Z,18
2018-12-22T19:25:01.089Z,17
2018-12-22T19:27:01.092Z,18
2018-12-22T19:28:01.088Z,17
2018-12-22T19:29:02.139Z,18
2018-12-22T19:30:01.093Z,19
2018-12-22T19:34:01.218Z,18
2018-12-22T19:35:01.093Z,17
2018-12-22T19:36:01.126Z,16
2018-12-22T19:38:01.092Z,17
2018-12-22T19:39:01.091Z,18
2018-12-22T19:40:01.092Z,19
2018-12-22T19:42:01.155Z,18
2018-12-22T19:43:01.096Z,16
2018-12-22T19:44:01.098Z,15
2018-12-22T19:45:01.091Z,14
2018-12-22T19:46:01.128Z,15
2018-12-22T19:47:01.093Z,17
2018-12-22T19:49:01.095Z,18
2018-12-22T19:51:01.125Z,19
2018-12-22T19:52:01.091Z,17
2018-12-22T19:54:01.233Z,15
2018-12-22T19:55:01.095Z,18
2018-12-22T19:58:01.094Z,17
2018-12-22T20:00:01.116Z,16
2018-12-22T20:03:01.159Z,15
2018-12-22T20:05:01.096Z,17
2018-12-22T20:07:01.181Z,16
2018-12-22T20:08:01.078Z,15
2018-12-22T20:10:01.078Z,16
2018-12-22T20:11:01.079Z,13
2018-12-22T20:13:01.079Z,15
2018-12-22T20:15:01.082Z,14
2018-12-22T20:17:01.097Z,15
2018-12-22T20:18:01.081Z,14
2018-12-22T20:19:01.080Z,15
2018-12-22T20:21:01.079Z,16
2018-12-22T20:22:01.082Z,14
2018-12-22T20:23:01.082Z,17
2018-12-22T20:26:01.085Z,16
2018-12-22T20:27:01.083Z,18
2018-12-22T20:30:01.097Z,18
2018-12-22T20:31:01.085Z,20
2018-12-22T20:32:01.084Z,18
2018-12-22T20:33:01.083Z,16
2018-12-22T20:34:01.080Z,15
2018-12-22T20:36:01.089Z,13
2018-12-22T20:37:01.080Z,14
2018-12-22T20:39:01.081Z,15
2018-12-22T20:40:01.088Z,16
2018-12-22T20:41:01.082Z,17